Time;durP1;ratioP1;P1;durP2;ratioP2;P2;SDS_P1;SDS_P2;PMS_P1;PMS_P2;Temp;Humidity;BMP_temperature;BMP_pressure;BME280_temperature;BME280_humidity;BME280_pressure;Samples;Min_cycle;Max_cycle;Signal;HPM_P1;HPM_P2
2024/04/14 00:00:59;;;;;;;9.65;3.80;;;17.70;99.90;;;22.25;64.98;100764.13;5354774;26;20000;-75
2024/04/14 00:03:24;;;;;;;6.57;3.80;;;17.70;99.90;;;22.23;64.61;100766.38;5403965;26;20016;-75
2024/04/14 00:05:50;;;;;;;9.20;4.20;;;17.80;99.90;;;22.38;63.94;100751.50;5355422;26;20822;-75
2024/04/14 00:08:16;;;;;;;7.32;4.03;;;17.80;99.90;;;22.43;63.94;100758.94;5353362;26;20339;-75
2024/04/14 00:10:42;;;;;;;7.85;4.30;;;17.80;99.90;;;22.51;64.01;100763.88;5373872;26;20006;-75
2024/04/14 00:13:08;;;;;;;7.65;4.15;;;17.80;99.90;;;22.48;64.71;100770.03;5368225;26;20001;-75
2024/04/14 00:15:34;;;;;;;7.45;4.03;;;17.90;99.90;;;22.13;65.69;100770.06;5349644;26;19993;-75
2024/04/14 00:18:00;;;;;;;6.93;3.95;;;17.90;99.90;;;22.41;66.09;100770.38;5369576;26;19999;-75
2024/04/14 00:20:26;;;;;;;7.50;4.05;;;18.00;99.90;;;22.39;64.97;100763.44;5347955;26;20011;-76
2024/04/14 00:22:52;;;;;;;6.80;4.10;;;17.90;99.90;;;22.48;65.43;100760.88;5364475;26;20065;-76
2024/04/14 00:25:18;;;;;;;8.63;4.47;;;17.90;99.90;;;21.97;65.83;100763.00;5351364;26;20002;-75
2024/04/14 00:27:44;;;;;;;7.40;4.20;;;17.90;99.90;;;21.76;70.23;100770.69;5367433;26;20010;-76
2024/04/14 00:30:11;;;;;;;9.38;4.63;;;18.00;99.90;;;22.12;68.28;100776.75;5431162;26;20024;-75
2024/04/14 00:32:38;;;;;;;9.85;5.10;;;18.10;99.90;;;21.68;71.09;100775.72;5371514;26;20019;-74
2024/04/14 00:35:04;;;;;;;8.10;4.67;;;18.20;99.90;;;21.77;70.17;100773.16;5389131;26;19996;-75
2024/04/14 00:37:29;;;;;;;9.93;5.25;;;18.30;99.90;;;21.78;71.23;100777.59;5342114;26;20618;-75
2024/04/14 00:39:55;;;;;;;10.30;4.97;;;18.30;99.90;;;21.53;70.86;100775.81;5413597;26;20001;-74
2024/04/14 00:42:21;;;;;;;9.10;5.20;;;18.20;99.90;;;21.38;71.67;100780.34;5360636;26;20015;-74
2024/04/14 00:44:47;;;;;;;6.50;4.53;;;18.20;99.90;;;21.52;70.24;100771.38;5346804;26;20001;-74
2024/04/14 00:47:13;;;;;;;7.32;4.25;;;18.00;99.90;;;21.02;66.01;100754.75;5353851;26;20066;-74
2024/04/14 00:49:41;;;;;;;9.23;3.55;;;18.00;99.90;;;21.44;63.06;100763.66;5353915;26;20008;-74
2024/04/14 00:52:08;;;;;;;;;;;17.90;99.90;;;21.22;64.07;100754.63;5355345;26;20004;-75
2024/04/14 00:54:36;;;;;;;7.18;3.50;;;17.80;99.90;;;21.09;64.23;100756.09;5363283;26;19926;-74
2024/04/14 00:57:03;;;;;;;10.23;3.55;;;17.70;99.90;;;20.90;61.90;100766.16;5404381;26;19993;-74
2024/04/14 00:59:30;;;;;;;8.03;3.47;;;17.70;99.90;;;21.04;59.72;100763.59;5347792;26;20041;-75
2024/04/14 01:01:56;;;;;;;5.43;2.97;;;17.60;99.90;;;20.89;61.14;100770.91;5362977;26;20051;-75
2024/04/14 01:04:21;;;;;;;7.70;3.40;;;17.50;99.90;;;20.88;62.50;100783.09;5346641;26;20239;-74
2024/04/14 01:06:47;;;;;;;8.63;3.22;;;17.40;99.90;;;20.49;64.93;100784.56;5349821;26;20008;-76
2024/04/14 01:09:15;;;;;;;6.00;3.42;;;17.50;99.90;;;20.67;63.79;100787.84;5366310;26;20426;-74
2024/04/14 01:11:41;;;;;;;7.20;3.22;;;17.30;99.90;;;20.52;63.42;100778.47;5354993;26;19993;-73
2024/04/14 01:14:09;;;;;;;5.80;3.33;;;17.10;99.90;;;20.29;64.09;100798.44;5354227;26;20005;-74
2024/04/14 01:16:39;;;;;;;6.45;3.50;;;17.00;99.90;;;20.26;64.70;100784.06;5413704;26;19993;-74
2024/04/14 01:19:06;;;;;;;6.95;3.17;;;17.00;99.90;;;20.10;64.28;100768.53;5358410;26;20492;-74
2024/04/14 01:21:33;;;;;;;11.77;3.58;;;16.90;99.90;;;20.46;64.03;100782.38;5345754;26;20005;-76
2024/04/14 01:23:59;;;;;;;8.05;3.65;;;16.80;99.90;;;20.51;63.96;100785.13;5340584;26;19993;-75
2024/04/14 01:26:25;;;;;;;5.72;3.00;;;16.80;99.90;;;20.22;65.66;100794.03;5355110;26;20013;-75
2024/04/14 01:28:51;;;;;;;5.57;3.25;;;16.70;99.90;;;19.55;67.65;100800.34;5366544;26;20692;-74
2024/04/14 01:31:17;;;;;;;12.45;3.25;;;16.60;99.90;;;19.84;66.68;100793.44;5353037;26;20359;-75
2024/04/14 01:33:45;;;;;;;6.15;3.50;;;16.60;99.90;;;19.60;67.67;100810.56;5347900;26;20361;-75
2024/04/14 01:36:11;;;;;;;7.07;3.55;;;16.50;99.90;;;19.72;68.34;100823.34;5352117;26;20000;-74
2024/04/14 01:38:37;;;;;;;5.78;3.50;;;16.40;99.90;;;19.83;69.03;100819.47;5378210;26;20012;-74
2024/04/14 01:41:03;;;;;;;6.95;3.13;;;16.30;99.90;;;19.54;69.39;100819.97;5413368;26;20012;-74
2024/04/14 01:43:29;;;;;;;6.70;3.10;;;16.30;99.90;;;19.72;67.91;100832.44;5401155;26;20437;-74
2024/04/14 01:45:55;;;;;;;10.30;2.95;;;16.20;99.90;;;19.23;68.35;100830.94;5357339;26;19996;-74
2024/04/14 01:48:21;;;;;;;5.55;2.72;;;16.40;99.90;;;19.24;64.26;100811.31;5357083;26;20001;-75
2024/04/14 01:50:48;;;;;;;4.95;2.15;;;16.40;99.90;;;19.10;64.01;100812.91;5357128;26;19997;-75
2024/04/14 01:53:14;;;;;;;7.05;2.30;;;16.40;99.90;;;19.33;61.98;100827.38;5345064;26;20001;-74
2024/04/14 01:55:45;;;;;;;6.30;2.30;;;16.40;99.90;;;19.24;61.29;100822.38;5356702;26;20021;-74
2024/04/14 01:58:11;;;;;;;5.15;2.03;;;16.30;99.90;;;19.19;61.90;100824.28;5351980;26;20008;-75
2024/04/14 02:00:36;;;;;;;4.63;2.10;;;16.30;99.90;;;19.53;59.56;100827.44;5344813;26;20004;-74
2024/04/14 02:03:03;;;;;;;5.63;2.08;;;16.20;99.90;;;19.25;61.95;100831.50;5361440;26;19993;-74
2024/04/14 02:05:29;;;;;;;6.05;2.10;;;16.10;99.90;;;18.77;62.27;100828.78;5382872;26;20001;-74
2024/04/14 02:07:54;;;;;;;3.25;1.50;;;16.10;99.90;;;18.78;62.50;100836.78;5377571;26;20015;-74
2024/04/14 02:10:20;;;;;;;7.50;2.40;;;16.10;99.90;;;19.12;61.74;100838.38;5362384;26;20011;-74
2024/04/14 02:12:46;;;;;;;7.28;2.17;;;16.00;99.90;;;19.03;60.96;100826.97;5383465;26;20007;-74
2024/04/14 02:15:12;;;;;;;7.72;2.15;;;15.90;99.90;;;18.55;61.78;100844.38;5422633;26;20505;-74
2024/04/14 02:17:39;;;;;;;6.00;2.38;;;15.80;99.90;;;18.84;60.67;100837.66;5347345;26;19997;-74
2024/04/14 02:20:05;;;;;;;6.82;1.83;;;15.80;99.90;;;18.78;62.81;100844.25;5398037;26;20031;-74
2024/04/14 02:22:30;;;;;;;5.35;1.80;;;15.80;99.90;;;18.76;61.41;100836.22;5366754;26;20073;-74
2024/04/14 02:24:56;;;;;;;5.97;1.80;;;15.60;99.90;;;18.52;62.43;100858.72;5356611;26;20017;-74
2024/04/14 02:27:22;;;;;;;5.65;2.10;;;15.50;99.90;;;18.65;62.04;100851.06;5356414;26;19993;-74
2024/04/14 02:29:48;;;;;;;7.18;2.20;;;15.50;99.90;;;18.35;63.58;100852.53;5389378;26;20000;-74
2024/04/14 02:32:13;;;;;;;5.07;1.83;;;15.40;99.90;;;18.22;63.88;100849.09;5374762;26;20012;-74
2024/04/14 02:34:40;;;;;;;10.50;2.45;;;15.40;99.90;;;18.03;65.74;100872.66;5360811;26;20001;-74
2024/04/14 02:37:06;;;;;;;4.63;1.80;;;15.30;99.90;;;18.22;65.25;100868.44;5353624;26;20033;-74
2024/04/14 02:39:31;;;;;;;5.30;2.63;;;15.20;99.90;;;18.48;64.17;100863.09;5375829;26;20000;-75
2024/04/14 02:41:57;;;;;;;4.80;2.15;;;15.10;99.90;;;17.89;66.27;100877.75;5374767;26;19997;-74
2024/04/14 02:44:23;;;;;;;6.95;2.42;;;15.00;99.90;;;18.97;64.01;100880.56;5365627;26;20004;-75
2024/04/14 02:46:49;;;;;;;6.15;2.35;;;14.90;99.90;;;17.87;67.47;100869.75;5348509;26;20136;-75
2024/04/14 02:49:15;;;;;;;7.25;2.40;;;15.00;99.90;;;18.21;67.07;100890.78;5367684;26;20013;-75
2024/04/14 02:51:43;;;;;;;6.28;2.10;;;15.00;99.90;;;18.24;66.76;100891.09;5354756;26;20040;-75
2024/04/14 02:54:10;;;;;;;7.78;2.50;;;15.00;99.90;;;17.91;67.71;100887.44;5405084;26;20035;-75
2024/04/14 02:56:36;;;;;;;7.30;2.65;;;14.90;99.90;;;17.85;68.49;100866.41;5357010;26;20001;-74
2024/04/14 02:59:01;;;;;;;6.80;1.95;;;15.00;99.90;;;18.10;69.10;100895.38;5366366;26;20008;-74
2024/04/14 03:01:27;;;;;;;6.78;2.42;;;15.00;99.90;;;18.09;68.22;100883.50;5347703;26;20008;-76
2024/04/14 03:03:53;;;;;;;4.68;2.03;;;15.00;99.90;;;17.74;67.96;100883.94;5346673;26;20001;-74
2024/04/14 03:06:18;;;;;;;7.13;2.55;;;15.00;99.90;;;18.01;67.89;100894.13;5358490;26;20428;-74
2024/04/14 03:08:44;;;;;;;6.88;2.40;;;15.00;99.90;;;18.44;66.03;100883.25;5362157;26;20014;-74
2024/04/14 03:11:10;;;;;;;7.68;2.20;;;15.00;99.90;;;18.38;67.98;100898.94;5371229;26;19997;-74
2024/04/14 03:13:35;;;;;;;9.50;2.30;;;15.00;99.90;;;17.97;66.79;100893.84;5369620;26;20004;-75
2024/04/14 03:16:03;;;;;;;5.15;2.20;;;15.00;99.90;;;18.03;68.16;100894.75;5356782;26;20012;-74
2024/04/14 03:18:29;;;;;;;6.30;2.10;;;14.90;99.90;;;17.93;67.34;100892.72;5365678;26;20075;-75
2024/04/14 03:21:00;;;;;;;6.18;2.28;;;14.90;99.90;;;18.20;67.83;100898.22;5353534;26;20000;-75
2024/04/14 03:23:27;;;;;;;4.95;2.25;;;14.90;99.90;;;18.23;68.82;100914.28;5371234;26;20007;-75
2024/04/14 03:25:54;;;;;;;6.25;2.35;;;14.80;99.90;;;18.53;66.80;100910.09;5382864;26;19996;-75
2024/04/14 03:28:26;;;;;;;6.30;2.17;;;14.80;99.90;;;18.21;66.12;100894.38;5363646;26;20425;-75
2024/04/14 03:30:58;;;;;;;5.72;2.13;;;14.80;99.90;;;18.32;68.02;100913.81;5414675;26;19997;-75
2024/04/14 03:33:24;;;;;;;7.97;2.60;;;14.80;99.90;;;17.70;68.49;100913.97;5354892;26;20028;-75
2024/04/14 03:36:00;;;;;;;5.93;2.17;;;14.80;99.90;;;17.64;70.23;100909.50;5355162;26;22547;-75
2024/04/14 03:38:26;;;;;;;6.38;2.00;;;14.80;99.90;;;17.45;70.12;100903.47;5350467;26;20391;-74
2024/04/14 03:40:53;;;;;;;6.95;2.00;;;14.80;99.90;;;17.94;69.30;100920.03;5349235;26;20075;-74
2024/04/14 03:43:19;;;;;;;9.32;2.10;;;14.90;99.90;;;17.93;69.07;100918.38;5375438;26;20003;-73
2024/04/14 03:45:44;;;;;;;8.50;2.80;;;14.80;99.90;;;17.90;68.58;100918.03;5403569;26;20484;-75
2024/04/14 03:48:10;;;;;;;6.38;2.25;;;14.80;99.90;;;18.49;66.77;100917.25;5361019;26;20027;-74
2024/04/14 03:50:36;;;;;;;8.60;2.30;;;14.70;99.90;;;18.00;68.49;100914.56;5347352;26;19992;-75
2024/04/14 03:53:04;;;;;;;5.07;2.10;;;14.70;99.90;;;18.63;65.84;100908.53;5350879;26;20000;-74
2024/04/14 03:55:31;;;;;;;6.70;2.20;;;14.70;99.90;;;17.51;69.09;100913.50;5360068;26;19992;-74
2024/04/14 03:57:58;;;;;;;6.63;2.25;;;14.60;99.90;;;18.07;68.64;100916.06;5352854;26;20012;-74
2024/04/14 04:00:23;;;;;;;6.85;2.17;;;14.60;99.90;;;18.16;68.11;100899.84;5388601;26;20005;-75
2024/04/14 04:02:50;;;;;;;6.30;2.22;;;14.60;99.90;;;17.87;70.13;100919.41;5358097;26;20427;-75
2024/04/14 04:05:15;;;;;;;8.13;2.40;;;14.60;99.90;;;17.93;70.74;100926.66;5374438;26;20044;-75
2024/04/14 04:07:41;;;;;;;6.63;2.33;;;14.50;99.90;;;18.01;69.39;100924.50;5346604;26;20001;-75
2024/04/14 04:10:09;;;;;;;10.38;3.33;;;14.50;99.90;;;17.76;71.23;100918.47;5351744;26;20302;-76
2024/04/14 04:12:34;;;;;;;10.20;2.45;;;14.50;99.90;;;18.37;69.68;100925.72;5358954;26;20036;-75
2024/04/14 04:15:03;;;;;;;3.92;1.92;;;14.50;99.90;;;18.15;70.86;100944.28;5359937;26;20035;-75
2024/04/14 04:17:28;;;;;;;5.88;2.33;;;14.50;99.90;;;18.34;69.95;100928.19;5394336;26;20069;-76
2024/04/14 04:19:54;;;;;;;7.97;2.92;;;14.50;99.90;;;17.98;70.48;100937.72;5372309;26;20312;-74
2024/04/14 04:22:20;;;;;;;8.40;2.42;;;14.50;99.90;;;18.18;70.78;100933.56;5353191;26;20332;-75
2024/04/14 04:24:45;;;;;;;9.40;3.10;;;14.50;99.90;;;17.44;75.29;100937.66;5353070;26;20012;-74
2024/04/14 04:27:11;;;;;;;5.57;2.75;;;14.50;99.90;;;17.72;73.95;100933.03;5346231;26;20018;-74
2024/04/14 04:29:37;;;;;;;9.80;2.80;;;14.50;99.90;;;17.67;73.69;100937.41;5353133;26;20524;-74
2024/04/14 04:32:03;;;;;;;9.77;2.78;;;14.50;99.90;;;17.95;73.13;100926.41;5354402;26;20047;-75
2024/04/14 04:34:29;;;;;;;7.60;3.00;;;14.40;99.90;;;17.64;74.66;100937.91;5324359;26;20009;-74
2024/04/14 04:36:54;;;;;;;9.02;2.90;;;14.40;99.90;;;17.32;77.32;100935.84;5357011;26;20007;-75
2024/04/14 04:39:20;;;;;;;9.35;3.17;;;14.40;99.90;;;17.17;79.96;100964.06;5347091;26;20005;-74
2024/04/14 04:41:46;;;;;;;7.85;2.78;;;14.40;99.90;;;16.82;84.56;100979.75;5353025;26;20024;-75
2024/04/14 04:44:12;;;;;;;6.68;2.40;;;14.30;99.90;;;16.54;85.73;100980.66;5346790;26;20044;-74
2024/04/14 04:46:38;;;;;;;10.50;2.60;;;14.20;99.90;;;16.49;82.51;100973.16;5377199;26;19997;-74
2024/04/14 04:49:03;;;;;;;9.40;2.30;;;14.10;99.90;;;16.67;75.64;100972.06;5351157;26;20355;-74
2024/04/14 04:51:30;;;;;;;6.97;1.70;;;14.00;99.90;;;16.55;72.30;100968.53;5322279;26;20048;-74
2024/04/14 04:53:55;;;;;;;3.97;1.60;;;13.90;99.90;;;16.39;70.61;100979.31;5346198;26;20004;-73
2024/04/14 04:56:21;;;;;;;5.88;1.50;;;14.00;99.90;;;16.87;68.10;100976.25;5359210;26;20019;-75
2024/04/14 04:58:47;;;;;;;4.00;1.23;;;14.00;99.90;;;16.68;65.65;100957.22;5372208;26;19999;-74
2024/04/14 05:01:12;;;;;;;4.15;1.50;;;13.90;99.90;;;16.36;65.96;100973.44;5362520;26;20047;-75
2024/04/14 05:03:38;;;;;;;5.50;1.23;;;13.90;99.90;;;16.78;64.33;100973.06;5356244;26;20007;-75
2024/04/14 05:06:05;;;;;;;5.10;1.48;;;13.80;99.90;;;16.81;64.30;100983.59;5360988;26;20016;-75
2024/04/14 05:08:32;;;;;;;3.67;0.98;;;13.80;99.90;;;16.87;64.73;100989.19;5386005;26;20012;-75
2024/04/14 05:10:59;;;;;;;4.50;1.10;;;13.80;99.90;;;16.39;66.21;101006.84;5352483;26;20440;-75
2024/04/14 05:13:26;;;;;;;4.40;1.15;;;13.80;99.90;;;16.31;65.09;100992.63;5346939;26;20009;-74
2024/04/14 05:15:53;;;;;;;3.80;1.20;;;13.70;99.90;;;16.45;65.28;100994.00;5366572;26;20000;-75
2024/04/14 05:18:20;;;;;;;7.10;1.83;;;13.70;99.90;;;15.99;65.46;101004.13;5366904;26;20131;-75
2024/04/14 05:20:46;;;;;;;5.20;1.20;;;13.80;99.90;;;16.16;63.92;100996.75;5377433;26;20015;-75
2024/04/14 05:23:12;;;;;;;3.13;0.90;;;13.80;99.90;;;16.65;62.39;100998.19;5364599;26;20424;-75
2024/04/14 05:25:40;;;;;;;4.25;1.23;;;13.70;99.90;;;16.53;60.61;100974.31;5351269;26;20441;-75
2024/04/14 05:28:06;;;;;;;3.53;0.95;;;13.60;99.90;;;16.07;60.93;100990.00;5352279;26;20008;-75
2024/04/14 05:30:32;;;;;;;5.57;0.95;;;13.50;99.90;;;16.43;59.94;100981.56;5344854;26;20027;-77
2024/04/14 05:32:58;;;;;;;5.38;0.80;;;13.50;99.90;;;16.13;60.71;100979.91;5345501;26;20336;-77
2024/04/14 05:35:24;;;;;;;3.95;1.17;;;13.50;99.90;;;16.61;59.61;100995.13;5369136;26;20019;-75
2024/04/14 05:37:50;;;;;;;3.08;0.98;;;13.50;99.90;;;16.62;60.03;100998.69;5357292;26;20036;-75
2024/04/14 05:40:15;;;;;;;4.75;1.08;;;13.60;99.90;;;16.28;61.53;101015.16;5387110;26;20001;-74
2024/04/14 05:42:41;;;;;;;3.45;0.82;;;13.60;99.90;;;16.06;60.59;100999.31;5374992;26;20113;-74
2024/04/14 05:45:08;;;;;;;5.97;1.45;;;13.70;99.90;;;16.00;62.26;101014.88;5385271;26;20009;-75
2024/04/14 05:47:35;;;;;;;6.35;1.08;;;13.70;99.90;;;16.63;61.93;101023.25;5353123;26;20002;-74
2024/04/14 05:50:02;;;;;;;3.53;1.17;;;13.70;99.90;;;16.26;63.28;101045.66;5342192;26;20000;-75
2024/04/14 05:52:27;;;;;;;8.82;1.58;;;13.60;99.90;;;16.07;63.30;101048.63;5343420;26;20005;-75
2024/04/14 05:54:53;;;;;;;4.03;1.05;;;13.60;99.90;;;16.53;62.27;101040.41;5348649;26;20460;-75
2024/04/14 05:57:19;;;;;;;5.00;1.13;;;13.60;99.90;;;15.48;63.37;101034.94;5372456;26;20103;-75
2024/04/14 05:59:45;;;;;;;4.32;1.15;;;13.50;99.90;;;16.13;62.46;101057.81;5353402;26;20042;-75
2024/04/14 06:02:15;;;;;;;5.85;1.33;;;13.50;99.90;;;16.73;60.80;101047.38;5364087;26;19997;-75
2024/04/14 06:04:40;;;;;;;4.23;1.13;;;13.50;99.90;;;16.18;61.10;101046.91;5354210;26;20011;-76
2024/04/14 06:07:06;;;;;;;4.13;1.17;;;13.50;99.90;;;16.57;60.46;101051.75;5348174;26;20219;-75
2024/04/14 06:09:38;;;;;;;7.40;1.20;;;13.50;99.90;;;15.59;61.38;101058.84;5359757;26;20448;-78
2024/04/14 06:12:05;;;;;;;6.90;1.30;;;13.30;99.90;;;15.75;62.64;101059.19;5354968;26;20509;-77
2024/04/14 06:14:31;;;;;;;7.20;1.30;;;13.30;99.90;;;16.16;60.20;101071.06;5356557;26;20008;-78
2024/04/14 06:16:56;;;;;;;6.82;1.10;;;13.30;99.90;;;16.15;60.41;101072.16;5356121;26;20011;-77
2024/04/14 06:19:22;;;;;;;6.10;1.13;;;13.30;99.90;;;15.75;60.32;101071.00;5411220;26;20103;-78
2024/04/14 06:21:48;;;;;;;4.78;1.60;;;13.30;99.90;;;15.72;60.23;101073.44;5408140;26;20487;-78
2024/04/14 06:24:23;;;;;;;5.20;1.10;;;13.40;99.90;;;15.99;60.48;101072.94;5369739;26;20004;-74
2024/04/14 06:26:48;;;;;;;6.85;1.35;;;13.30;99.90;;;15.74;61.07;101071.25;5359364;26;20336;-74
2024/04/14 06:29:14;;;;;;;6.50;1.38;;;13.20;99.90;;;16.03;58.86;101057.59;5358952;26;20016;-74
2024/04/14 06:31:40;;;;;;;5.22;1.17;;;13.30;99.90;;;15.67;58.37;101063.13;5360479;26;20011;-74
2024/04/14 06:34:05;;;;;;;8.68;1.20;;;13.30;99.90;;;16.48;57.13;101062.34;5370062;26;20503;-74
2024/04/14 06:36:31;;;;;;;6.60;1.30;;;13.20;99.90;;;16.20;56.87;101054.91;5348127;26;20059;-74
2024/04/14 06:38:57;;;;;;;8.00;1.95;;;13.30;99.90;;;16.16;55.73;101040.78;5347620;26;20036;-73
2024/04/14 06:41:24;;;;;;;6.70;1.30;;;13.30;99.90;;;16.35;53.53;101040.63;5353078;26;20051;-75
2024/04/14 06:43:49;;;;;;;3.63;0.90;;;13.40;99.90;;;15.73;54.60;101036.59;5346895;26;20029;-74
2024/04/14 06:46:15;;;;;;;4.25;0.85;;;13.20;99.90;;;15.81;54.80;101044.47;5358837;26;20003;-73
2024/04/14 06:48:41;;;;;;;6.70;1.10;;;13.40;99.90;;;15.80;55.39;101067.53;5375339;26;20468;-73
2024/04/14 06:51:07;;;;;;;4.97;1.08;;;13.30;99.90;;;15.63;55.55;101076.53;5360562;26;20169;-73
2024/04/14 06:53:33;;;;;;;7.75;1.60;;;13.20;99.90;;;15.69;55.98;101077.47;5354695;26;20043;-73
2024/04/14 06:56:00;;;;;;;6.28;1.25;;;13.10;99.90;;;16.32;54.36;101069.50;5348696;26;20001;-73
2024/04/14 06:58:26;;;;;;;4.47;1.42;;;13.20;99.90;;;16.88;53.33;101071.59;5352618;26;20004;-74
2024/04/14 07:00:52;;;;;;;3.83;1.02;;;13.40;99.90;;;16.47;52.80;101060.69;5347169;26;20070;-74
2024/04/14 07:03:18;;;;;;;3.22;0.95;;;13.40;99.90;;;16.05;53.54;101080.22;5357188;26;20048;-74
2024/04/14 07:05:44;;;;;;;4.47;1.10;;;13.40;99.90;;;16.01;54.21;101082.59;5352819;26;20044;-73
2024/04/14 07:08:10;;;;;;;6.65;1.10;;;13.50;99.90;;;16.35;54.23;101088.25;5361754;26;20061;-74
2024/04/14 07:10:36;;;;;;;4.22;0.98;;;13.60;99.90;;;16.62;51.04;101051.00;5352429;26;20053;-73
2024/04/14 07:13:01;;;;;;;5.03;1.10;;;13.80;99.90;;;15.90;51.82;101056.78;5344595;26;20005;-74
2024/04/14 07:15:27;;;;;;;6.63;0.90;;;13.80;99.90;;;16.03;52.54;101052.91;5358663;26;20003;-74
2024/04/14 07:17:53;;;;;;;5.00;1.30;;;13.70;99.90;;;17.03;51.76;101071.06;5378470;26;20011;-74
2024/04/14 07:20:20;;;;;;;3.90;0.90;;;13.90;99.90;;;16.22;49.32;101034.34;5359604;26;20371;-75
2024/04/14 07:22:46;;;;;;;4.60;1.07;;;14.10;99.90;;;15.75;49.89;101035.25;5347579;26;20433;-73
2024/04/14 07:25:11;;;;;;;7.95;1.17;;;13.80;99.90;;;15.90;49.50;101056.78;5358075;26;20222;-74
2024/04/14 07:27:37;;;;;;;5.13;1.20;;;13.70;99.90;;;15.95;49.67;101056.91;5357995;26;20015;-74
2024/04/14 07:30:04;;;;;;;6.88;1.10;;;13.70;99.90;;;15.65;49.47;101052.41;5353878;26;20443;-73
2024/04/14 07:32:30;;;;;;;4.68;0.98;;;13.70;99.90;;;16.78;48.24;101064.00;5362932;26;20017;-73
2024/04/14 07:34:56;;;;;;;7.30;1.10;;;13.80;99.90;;;17.42;47.89;101070.28;5356389;26;20084;-73
2024/04/14 07:37:21;;;;;;;7.05;1.08;;;14.10;99.90;;;18.22;46.95;101061.72;5347573;26;20001;-74
2024/04/14 07:39:47;;;;;;;6.65;1.20;;;14.50;99.90;;;16.81;48.16;101030.44;5382815;26;20011;-74
2024/04/14 07:42:13;;;;;;;4.45;0.93;;;14.40;99.90;;;17.44;48.58;101067.25;5358074;26;20081;-74
2024/04/14 07:44:38;;;;;;;8.20;1.05;;;14.20;99.90;;;15.89;50.75;101076.28;5368091;26;20000;-73
2024/04/14 07:47:04;;;;;;;5.40;1.10;;;13.90;99.90;;;16.59;50.39;101076.31;5357238;26;20073;-74
2024/04/14 07:49:30;;;;;;;4.43;1.00;;;13.90;99.90;;;17.02;49.25;101077.66;5371884;26;20028;-74
2024/04/14 07:51:56;;;;;;;6.85;1.25;;;14.00;99.90;;;17.05;48.89;101077.16;5356230;26;20508;-74
2024/04/14 07:54:22;;;;;;;4.57;0.90;;;14.10;99.90;;;17.16;48.22;101075.41;5346965;26;20001;-74
2024/04/14 07:56:47;;;;;;;4.72;1.23;;;14.00;99.90;;;17.70;46.94;101082.28;5357755;26;20012;-74
2024/04/14 07:59:13;;;;;;;6.13;1.00;;;14.20;99.90;;;16.38;47.75;101048.38;5376903;26;20061;-73
2024/04/14 08:01:39;;;;;;;4.88;1.30;;;14.20;99.90;;;17.72;47.19;101082.00;5355333;26;20004;-73
2024/04/14 08:04:04;;;;;;;6.20;1.35;;;14.40;99.90;;;18.44;45.49;101077.41;5349998;26;19993;-74
2024/04/14 08:06:31;;;;;;;5.68;1.00;;;14.80;99.90;;;18.58;45.14;101066.78;5353049;26;20456;-74
2024/04/14 08:08:57;;;;;;;4.35;1.10;;;15.10;99.90;;;18.49;45.63;101071.94;5347779;26;20005;-74
2024/04/14 08:11:24;;;;;;;3.65;1.05;;;15.20;99.90;;;18.12;45.56;101053.31;5353469;26;20011;-74
2024/04/14 08:13:51;;;;;;;6.80;1.52;;;15.10;99.90;;;17.54;46.10;101071.00;5351363;26;20015;-75
2024/04/14 08:16:16;;;;;;;5.35;0.98;;;15.00;99.90;;;18.14;46.64;101084.25;5352224;26;20011;-74
2024/04/14 08:18:45;;;;;;;4.47;1.08;;;15.00;99.90;;;17.81;46.34;101097.88;5359094;26;20000;-74
2024/04/14 08:21:11;;;;;;;5.55;1.00;;;15.00;99.90;;;17.16;47.36;101086.44;5345520;26;20008;-74
2024/04/14 08:23:37;;;;;;;3.25;0.90;;;14.70;99.90;;;16.68;47.91;101091.34;5346206;26;20007;-74
2024/04/14 08:26:03;;;;;;;4.93;1.00;;;14.30;99.90;;;16.49;49.40;101097.06;5357131;26;20006;-73
2024/04/14 08:28:29;;;;;;;5.47;1.20;;;14.30;99.90;;;17.02;49.41;101130.03;5344484;26;20421;-74
2024/04/14 08:30:54;;;;;;;4.20;1.17;;;14.30;99.90;;;16.49;50.12;101130.13;5411300;26;20429;-74
2024/04/14 08:33:20;;;;;;;6.38;0.98;;;14.30;99.90;;;17.64;48.26;101119.97;5369705;26;20000;-73
2024/04/14 08:35:46;;;;;;;4.88;0.85;;;14.50;99.90;;;16.49;47.79;101107.22;5355771;26;20370;-74
2024/04/14 08:38:12;;;;;;;5.38;0.90;;;14.40;99.90;;;15.98;47.92;101099.59;5366445;26;20037;-74
2024/04/14 08:40:38;;;;;;;3.95;0.95;;;14.10;99.90;;;15.74;48.12;101107.84;5374449;26;19992;-73
2024/04/14 08:43:04;;;;;;;4.20;1.17;;;13.70;99.90;;;15.41;47.59;101111.22;5375811;26;20428;-73
2024/04/14 08:45:32;;;;;;;5.50;0.77;;;13.70;99.90;;;16.27;45.34;101098.81;5380304;26;19995;-75
2024/04/14 08:48:02;;;;;;;4.30;0.90;;;14.00;99.90;;;15.84;46.87;101100.91;5382389;26;20401;-73
2024/04/14 08:50:29;;;;;;;5.68;1.30;;;13.70;99.90;;;16.27;46.26;101116.16;5373579;26;20032;-73
2024/04/14 08:52:55;;;;;;;4.30;1.33;;;13.90;99.90;;;17.28;45.39;101111.16;5356376;26;19997;-74
2024/04/14 08:55:21;;;;;;;4.88;1.10;;;14.40;99.90;;;16.87;46.33;101113.16;5353692;26;20383;-74
2024/04/14 08:57:47;;;;;;;7.57;1.38;;;14.40;99.90;;;16.45;46.18;101111.56;5369433;26;20451;-73
2024/04/14 09:00:18;;;;;;;7.28;1.00;;;14.30;99.90;;;16.76;46.38;101120.41;5363057;26;20000;-74
2024/04/14 09:02:45;;;;;;;7.03;1.15;;;14.30;99.90;;;16.59;44.15;101087.31;5350858;26;20129;-74
2024/04/14 09:05:13;;;;;;;7.68;1.13;;;14.30;99.10;;;16.70;45.82;101104.88;5354007;26;20343;-74
2024/04/14 09:07:43;;;;;;;11.25;1.23;;;14.30;99.90;;;16.72;46.37;101122.84;5346315;26;20008;-74
2024/04/14 09:10:09;;;;;;;5.70;1.00;;;14.30;99.90;;;17.54;44.96;101117.09;5346645;26;19997;-74
2024/04/14 09:12:35;;;;;;;4.63;0.75;;;14.70;99.90;;;18.30;42.17;101126.69;5352370;26;20001;-74
2024/04/14 09:15:04;;;;;;;5.20;0.93;;;15.00;99.00;;;18.50;39.47;101058.97;5343962;26;20012;-76
2024/04/14 09:17:32;;;;;;;4.53;1.00;;;15.20;97.00;;;16.37;42.57;101035.69;5357505;26;20001;-74
2024/04/14 09:19:58;;;;;;;4.43;0.93;;;14.60;97.60;;;17.04;43.54;101088.41;5390140;26;20110;-75
2024/04/14 09:22:24;;;;;;;4.15;1.00;;;14.40;98.30;;;17.48;42.97;101090.50;5403401;26;20012;-74
2024/04/14 09:24:50;;;;;;;6.40;1.10;;;14.50;98.90;;;18.08;42.73;101107.38;5346050;26;20011;-75
2024/04/14 09:27:16;;;;;;;3.85;0.90;;;14.90;99.00;;;18.20;41.04;101083.22;5352969;26;20845;-76
2024/04/14 09:29:42;;;;;;;4.80;1.13;;;15.10;97.30;;;19.28;39.34;101090.94;5387779;26;20011;-75
2024/04/14 09:32:08;;;;;;;5.50;0.98;;;15.50;97.10;;;18.88;39.41;101079.22;5365318;26;20001;-74
2024/04/14 09:34:40;;;;;;;4.25;0.82;;;15.60;96.50;;;19.18;39.05;101066.78;5357811;26;20029;-75
2024/04/14 09:37:12;;;;;;;3.63;1.00;;;15.70;96.20;;;19.03;38.86;101066.69;5360802;26;20047;-76
2024/04/14 09:39:38;;;;;;;4.90;1.00;;;15.80;95.60;;;19.17;39.50;101072.59;5352016;26;20510;-76
2024/04/14 09:42:04;;;;;;;5.40;1.00;;;15.80;95.90;;;19.31;38.50;101076.56;5351107;26;20016;-74
2024/04/14 09:44:33;;;;;;;6.07;1.00;;;15.90;95.90;;;18.96;39.21;101078.78;5342201;26;20025;-74
2024/04/14 09:47:00;;;;;;;6.43;1.10;;;15.90;95.70;;;18.38;39.54;101056.38;5347004;26;20521;-75
2024/04/14 09:49:29;;;;;;;3.90;1.08;;;15.80;95.10;;;18.74;39.93;101081.59;5368212;26;20011;-75
2024/04/14 09:51:56;;;;;;;3.22;0.80;;;15.60;95.40;;;18.86;39.33;101088.91;5412989;26;19996;-76
2024/04/14 09:54:23;;;;;;;5.25;1.08;;;15.90;95.10;;;18.10;38.95;101058.25;5371354;26;20008;-75
2024/04/14 09:56:49;;;;;;;3.35;0.70;;;15.40;93.80;;;18.03;37.83;101027.25;5349132;26;20015;-76
2024/04/14 09:59:15;;;;;;;5.18;1.02;;;15.40;93.30;;;18.45;37.70;101045.13;5402585;26;20030;-76
2024/04/14 10:01:45;;;;;;;5.65;0.85;;;15.50;94.00;;;18.52;37.57;101041.03;5359180;26;20004;-75
2024/04/14 10:04:13;;;;;;;5.78;1.10;;;15.50;93.70;;;19.05;36.98;101053.44;5358329;26;20037;-76
2024/04/14 10:06:41;;;;;;;6.50;1.20;;;16.00;92.70;;;19.31;36.91;101061.91;5355225;26;20000;-77
2024/04/14 10:09:11;;;;;;;2.35;0.80;;;16.60;91.70;;;19.01;36.74;101038.47;5394956;26;20001;-75